KHUM/HUM METAR and TAF weather

Enter ICAO airport designator
Station Type Date Time Source
KHUM METAR 2022/05/23 12:50 UTC NOAA

KHUM 231250Z 01006KT 5SM BR BKN003 BKN010 23/23 A3003


Station Type Date Time Source
KHUM Decoded METAR 2022/05/23 12:50 UTC NOAA

Houma-Terrebonne, LA, United States (KHUM) 29-34N 090-40W
May 23, 2022 - 08:50 AM EDT / 2022.05.23 1250 UTC
Wind: from the N (010 degrees) at 7 MPH (6 KT):0
Visibility: 5 mile(s):0
Sky conditions: mostly cloudy
Weather: mist
Temperature: 73 F (23 C)
Dew Point: 73 F (23 C)
Relative Humidity: 100%
Pressure (altimeter): 30.03 in. Hg (1016 hPa)
ob: KHUM 231250Z 01006KT 5SM BR BKN003 BKN010 23/23 A3003
cycle: 13

Station Type Date Time Source
KHUM TAF 2022/05/23 12:24 UTC NOAA

TAF KHUM 231123Z 2312/2412 VRB04KT P6SM BKN020
FM231300 VRB03KT P6SM BKN020 BKN060
FM231800 14005KT P6SM SHRA VCTS BKN020CB BKN035
FM240000 14008KT P6SM SCT025 BKN090

Example: see airport list